createdAt,value
2022-10-17T00:00:37.389Z,90.33
2022-10-17T00:01:37.460Z,91.05
2022-10-17T00:02:37.353Z,91.25
2022-10-17T00:03:37.353Z,90.94
2022-10-17T00:04:37.361Z,91.19
2022-10-17T00:05:37.345Z,91.49
2022-10-17T00:06:37.358Z,91.60
2022-10-17T00:07:37.343Z,91.60
2022-10-17T00:08:37.334Z,92.00
2022-10-17T00:09:37.311Z,91.49
2022-10-17T00:10:37.331Z,91.80
2022-10-17T00:11:37.290Z,92.10
2022-10-17T00:12:37.314Z,91.69
2022-10-17T00:13:37.279Z,91.80
2022-10-17T00:14:37.273Z,92.21
2022-10-17T00:15:37.286Z,91.80
2022-10-17T00:16:37.292Z,91.80
2022-10-17T00:17:37.258Z,91.80
2022-10-17T00:18:37.257Z,92.00
2022-10-17T00:19:37.233Z,91.69
2022-10-17T00:20:37.240Z,93.18
2022-10-17T00:21:37.237Z,92.51
2022-10-17T00:22:37.263Z,92.91
2022-10-17T00:23:37.219Z,92.10
2022-10-17T00:24:37.222Z,92.10
2022-10-17T00:25:37.200Z,91.69
2022-10-17T00:26:37.190Z,92.00
2022-10-17T00:27:37.192Z,91.29
2022-10-17T00:28:37.268Z,91.19
2022-10-17T00:29:37.167Z,90.88
2022-10-17T00:30:37.160Z,89.97
2022-10-17T00:31:37.155Z,90.27
2022-10-17T00:32:37.162Z,90.72
2022-10-17T00:33:37.158Z,91.13
2022-10-17T00:34:37.271Z,91.03
2022-10-17T00:35:37.125Z,91.29
2022-10-17T00:36:37.126Z,91.64
2022-10-17T00:37:37.108Z,91.43
2022-10-17T00:38:37.458Z,91.53
2022-10-17T00:39:37.091Z,91.33
2022-10-17T00:40:37.088Z,91.23
2022-10-17T00:41:37.070Z,91.80
2022-10-17T00:42:37.087Z,92.14
2022-10-17T00:43:37.072Z,91.88
2022-10-17T00:44:37.085Z,91.84
2022-10-17T00:45:37.049Z,91.53
2022-10-17T00:46:37.065Z,91.74
2022-10-17T00:47:37.490Z,92.76
2022-10-17T00:48:37.032Z,92.96
2022-10-17T00:49:37.012Z,92.14
2022-10-17T00:50:37.007Z,91.94
2022-10-17T00:51:37.009Z,91.84
2022-10-17T00:52:37.010Z,91.94
2022-10-17T00:53:36.996Z,91.74
2022-10-17T00:54:37.008Z,92.49
2022-10-17T00:55:36.971Z,92.90
2022-10-17T00:56:36.958Z,92.55
2022-10-17T00:57:37.648Z,93.51
2022-10-17T00:58:36.956Z,93.71
2022-10-17T00:59:36.952Z,94.23
2022-10-17T01:00:36.964Z,94.23
2022-10-17T01:01:36.989Z,94.93
2022-10-17T01:02:37.340Z,94.84
2022-10-17T01:03:36.924Z,95.49
2022-10-17T01:04:36.902Z,96.15
2022-10-17T01:05:37.129Z,96.92
2022-10-17T01:06:36.899Z,96.36
2022-10-17T01:07:37.419Z,96.30
2022-10-17T01:08:36.879Z,96.06
2022-10-17T01:09:36.881Z,96.15
2022-10-17T01:10:36.883Z,95.91
2022-10-17T01:11:36.859Z,95.85
2022-10-17T01:12:36.856Z,96.06
2022-10-17T01:13:36.840Z,95.81
2022-10-17T01:14:36.839Z,95.91
2022-10-17T01:15:36.858Z,96.22
2022-10-17T01:16:36.826Z,95.91
2022-10-17T01:17:36.814Z,95.76
2022-10-17T01:18:36.814Z,95.81
2022-10-17T01:19:36.806Z,95.20
2022-10-17T01:20:36.800Z,95.40
2022-10-17T01:21:36.794Z,96.07
2022-10-17T01:22:36.789Z,95.46
2022-10-17T01:23:36.778Z,96.31
2022-10-17T01:24:36.760Z,96.42
2022-10-17T01:25:36.780Z,95.97
2022-10-17T01:26:36.798Z,96.17
2022-10-17T01:27:36.738Z,96.22
2022-10-17T01:28:36.868Z,95.36
2022-10-17T01:29:36.774Z,94.48
2022-10-17T01:30:36.720Z,93.26
2022-10-17T01:31:36.750Z,92.55
2022-10-17T01:32:36.720Z,92.55
2022-10-17T01:33:36.698Z,93.02
2022-10-17T01:34:36.706Z,92.55
2022-10-17T01:35:36.688Z,94.69
2022-10-17T01:36:36.680Z,95.91
2022-10-17T01:37:36.714Z,96.22
2022-10-17T01:38:36.673Z,96.62
2022-10-17T01:39:38.426Z,96.72
2022-10-17T01:40:36.650Z,96.42
2022-10-17T01:41:36.640Z,97.23
2022-10-17T01:42:36.654Z,96.62
2022-10-17T01:43:36.697Z,96.31
2022-10-17T01:44:36.614Z,96.72
2022-10-17T01:45:36.757Z,96.98
2022-10-17T01:46:36.601Z,96.78
2022-10-17T01:47:36.598Z,96.83
2022-10-17T01:48:36.594Z,96.83
2022-10-17T01:49:36.700Z,96.62
2022-10-17T01:50:36.568Z,97.03
2022-10-17T01:51:36.573Z,97.03
2022-10-17T01:52:36.574Z,97.13
2022-10-17T01:53:36.556Z,97.08
2022-10-17T01:54:36.547Z,97.19
2022-10-17T01:55:36.668Z,97.13
2022-10-17T01:56:36.529Z,96.37
2022-10-17T01:57:36.525Z,95.15
2022-10-17T01:58:36.539Z,94.69
2022-10-17T01:59:36.519Z,94.38
2022-10-17T02:00:36.508Z,93.02
2022-10-17T02:01:36.567Z,93.16
2022-10-17T02:02:36.511Z,93.06
2022-10-17T02:03:36.532Z,92.96
2022-10-17T02:04:36.475Z,92.45
2022-10-17T02:05:36.463Z,92.10
2022-10-17T02:06:36.465Z,92.14
2022-10-17T02:07:36.448Z,91.74
2022-10-17T02:08:36.459Z,91.84
2022-10-17T02:09:36.681Z,91.58
2022-10-17T02:10:36.449Z,91.94
2022-10-17T02:11:36.426Z,91.78
2022-10-17T02:12:36.418Z,91.84
2022-10-17T02:13:36.417Z,92.29
2022-10-17T02:14:36.437Z,92.04
2022-10-17T02:15:36.434Z,92.40
2022-10-17T02:16:36.388Z,92.60
2022-10-17T02:17:36.386Z,92.90
2022-10-17T02:18:36.387Z,93.25
2022-10-17T02:19:36.389Z,93.86
2022-10-17T02:20:36.372Z,94.47
2022-10-17T02:21:36.366Z,95.29
2022-10-17T02:22:36.354Z,96.45
2022-10-17T02:23:36.362Z,96.76
2022-10-17T02:24:36.336Z,96.61
2022-10-17T02:25:36.353Z,96.81
2022-10-17T02:26:36.346Z,96.81
2022-10-17T02:27:36.312Z,96.81
2022-10-17T02:28:36.377Z,97.22
2022-10-17T02:29:36.307Z,96.92
2022-10-17T02:30:36.661Z,96.81
2022-10-17T02:31:36.283Z,96.81
2022-10-17T02:32:36.320Z,96.26
2022-10-17T02:33:36.279Z,95.95
2022-10-17T02:34:36.270Z,95.75
2022-10-17T02:35:36.261Z,95.79
2022-10-17T02:36:36.254Z,96.41
2022-10-17T02:37:36.250Z,96.15
2022-10-17T02:38:36.264Z,96.67
2022-10-17T02:39:36.238Z,96.46
2022-10-17T02:40:36.235Z,96.97
2022-10-17T02:41:36.223Z,97.53
2022-10-17T02:42:36.211Z,97.07
2022-10-17T02:43:36.233Z,96.36
2022-10-17T02:44:36.194Z,96.46
2022-10-17T02:45:36.647Z,96.46
2022-10-17T02:46:36.216Z,97.28
2022-10-17T02:47:36.175Z,96.87
2022-10-17T02:48:36.175Z,97.28
2022-10-17T02:49:36.173Z,96.87
2022-10-17T02:50:36.180Z,96.46
2022-10-17T02:51:36.173Z,96.97
2022-10-17T02:52:36.148Z,96.77
2022-10-17T02:53:36.129Z,96.97
2022-10-17T02:54:36.140Z,96.97
2022-10-17T02:55:36.142Z,96.77
2022-10-17T02:56:36.139Z,96.67
2022-10-17T02:57:36.126Z,97.07
2022-10-17T02:58:36.098Z,97.02
2022-10-17T02:59:36.272Z,97.12
2022-10-17T03:00:36.111Z,97.12
2022-10-17T03:01:36.156Z,96.71
2022-10-17T03:02:36.095Z,97.22
2022-10-17T03:03:36.065Z,97.02
2022-10-17T03:04:36.054Z,97.17
2022-10-17T03:05:36.078Z,96.67
2022-10-17T03:06:36.053Z,94.68
2022-10-17T03:07:36.026Z,94.07
2022-10-17T03:08:36.028Z,94.27
2022-10-17T03:09:36.022Z,94.32
2022-10-17T03:10:36.502Z,94.37
2022-10-17T03:11:35.997Z,94.07
2022-10-17T03:12:35.997Z,93.96
2022-10-17T03:13:39.037Z,93.25
2022-10-17T03:14:35.988Z,94.07
2022-10-17T03:15:36.000Z,93.76
2022-10-17T03:16:35.967Z,93.35
2022-10-17T03:17:36.064Z,94.57
2022-10-17T03:18:35.976Z,94.11
2022-10-17T03:19:35.941Z,94.07
2022-10-17T03:20:35.945Z,93.66
2022-10-17T03:21:35.941Z,94.11
2022-10-17T03:22:35.964Z,94.07
2022-10-17T03:23:35.924Z,92.89
2022-10-17T03:24:35.904Z,93.50
2022-10-17T03:25:35.900Z,93.60
2022-10-17T03:26:35.968Z,93.25
2022-10-17T03:27:36.153Z,93.60
2022-10-17T03:28:35.959Z,93.09
2022-10-17T03:29:35.882Z,93.50
2022-10-17T03:30:35.867Z,93.40
2022-10-17T03:31:35.886Z,93.60
2022-10-17T03:32:35.846Z,93.29
2022-10-17T03:33:35.840Z,93.40
2022-10-17T03:34:35.867Z,93.40
2022-10-17T03:35:35.839Z,93.95
2022-10-17T03:36:35.819Z,94.11
2022-10-17T03:37:35.828Z,94.72
2022-10-17T03:38:35.823Z,95.23
2022-10-17T03:39:35.893Z,95.23
2022-10-17T03:40:35.818Z,95.79
2022-10-17T03:41:35.796Z,96.51
2022-10-17T03:42:35.792Z,97.37
2022-10-17T03:43:35.776Z,97.37
2022-10-17T03:44:35.771Z,97.02
2022-10-17T03:45:35.771Z,97.22
2022-10-17T03:46:35.760Z,97.53
2022-10-17T03:47:35.763Z,96.92
2022-10-17T03:48:35.742Z,96.41
2022-10-17T03:49:36.424Z,96.20
2022-10-17T03:50:35.751Z,96.00
2022-10-17T03:51:35.722Z,95.94
2022-10-17T03:52:35.725Z,96.00
2022-10-17T03:53:35.717Z,96.20
2022-10-17T03:54:35.732Z,95.08
2022-10-17T03:55:35.691Z,95.49
2022-10-17T03:56:35.691Z,95.18
2022-10-17T03:57:35.715Z,94.98
2022-10-17T03:58:35.675Z,95.53
2022-10-17T03:59:35.671Z,94.62
2022-10-17T04:00:35.657Z,94.11
2022-10-17T04:01:35.745Z,93.29
2022-10-17T04:02:35.656Z,93.80
2022-10-17T04:03:35.688Z,94.01
2022-10-17T04:04:35.636Z,94.82
2022-10-17T04:05:35.632Z,94.82
2022-10-17T04:06:35.644Z,94.52
2022-10-17T04:07:35.608Z,94.62
2022-10-17T04:08:35.628Z,95.03
2022-10-17T04:09:35.601Z,95.84
2022-10-17T04:10:35.620Z,96.15
2022-10-17T04:11:35.588Z,96.55
2022-10-17T04:12:35.576Z,97.06
2022-10-17T04:13:35.866Z,97.37
2022-10-17T04:14:35.565Z,97.16
2022-10-17T04:15:35.552Z,97.27
2022-10-17T04:16:35.553Z,97.06
2022-10-17T04:17:38.012Z,96.45
2022-10-17T04:18:35.541Z,96.35
2022-10-17T04:19:35.525Z,95.94
2022-10-17T04:20:35.519Z,96.04
2022-10-17T04:21:35.510Z,96.04
2022-10-17T04:22:35.551Z,94.92
2022-10-17T04:23:35.501Z,95.03
2022-10-17T04:24:35.487Z,94.52
2022-10-17T04:25:36.739Z,93.90
2022-10-17T04:26:35.488Z,94.31
2022-10-17T04:27:35.498Z,94.62
2022-10-17T04:28:42.507Z,94.31
2022-10-17T04:29:35.456Z,94.21
2022-10-17T04:30:35.456Z,94.11
2022-10-17T04:31:35.434Z,94.01
2022-10-17T04:32:35.435Z,94.31
2022-10-17T04:33:35.429Z,93.85
2022-10-17T04:34:35.439Z,93.64
2022-10-17T04:35:35.406Z,94.15
2022-10-17T04:36:35.400Z,94.15
2022-10-17T04:37:35.398Z,94.35
2022-10-17T04:38:35.419Z,94.26
2022-10-17T04:39:35.400Z,94.81
2022-10-17T04:40:35.386Z,95.07
2022-10-17T04:41:35.372Z,95.07
2022-10-17T04:42:35.360Z,95.48
2022-10-17T04:43:35.365Z,95.48
2022-10-17T04:44:35.361Z,95.48
2022-10-17T04:45:35.335Z,95.62
2022-10-17T04:46:35.335Z,94.97
2022-10-17T04:47:35.340Z,95.52
2022-10-17T04:48:35.316Z,95.07
2022-10-17T04:49:35.347Z,94.97
2022-10-17T04:50:35.314Z,94.76
2022-10-17T04:51:35.293Z,95.07
2022-10-17T04:52:35.291Z,96.50
2022-10-17T04:53:35.296Z,96.39
2022-10-17T04:54:35.318Z,96.19
2022-10-17T04:55:35.277Z,96.19
2022-10-17T04:56:35.257Z,96.80
2022-10-17T04:57:35.256Z,97.16
2022-10-17T04:58:35.248Z,97.16
2022-10-17T04:59:35.261Z,97.27
2022-10-17T05:00:35.275Z,97.16
2022-10-17T05:01:35.233Z,96.96
2022-10-17T05:02:35.223Z,96.91
2022-10-17T05:03:35.214Z,96.86
2022-10-17T05:04:35.212Z,96.66
2022-10-17T05:05:35.258Z,96.76
2022-10-17T05:06:35.190Z,96.66
2022-10-17T05:07:35.193Z,96.45
2022-10-17T05:08:35.184Z,96.45
2022-10-17T05:09:35.175Z,96.55
2022-10-17T05:10:35.244Z,96.15
2022-10-17T05:11:35.156Z,96.66
2022-10-17T05:12:35.154Z,96.86
2022-10-17T05:13:35.167Z,96.45
2022-10-17T05:14:35.138Z,97.37
2022-10-17T05:15:35.143Z,97.37
2022-10-17T05:16:35.119Z,97.06
2022-10-17T05:17:35.138Z,97.02
2022-10-17T05:18:35.104Z,97.37
2022-10-17T05:19:35.096Z,97.22
2022-10-17T05:20:35.095Z,97.16
2022-10-17T05:21:35.088Z,96.81
2022-10-17T05:22:38.251Z,96.76
2022-10-17T05:23:36.069Z,96.51
2022-10-17T05:24:35.056Z,96.45
2022-10-17T05:25:35.050Z,96.51
2022-10-17T05:26:35.089Z,96.00
2022-10-17T05:27:35.040Z,96.00
2022-10-17T05:28:35.128Z,96.10
2022-10-17T05:29:35.059Z,94.98
2022-10-17T05:30:36.870Z,95.29
2022-10-17T05:31:35.021Z,95.08
2022-10-17T05:32:35.010Z,94.17
2022-10-17T05:33:35.015Z,94.17
2022-10-17T05:34:34.999Z,93.25
2022-10-17T05:35:34.994Z,92.44
2022-10-17T05:36:34.977Z,91.66
2022-10-17T05:37:34.977Z,91.66
2022-10-17T05:38:35.002Z,91.01
2022-10-17T05:39:34.970Z,91.16
2022-10-17T05:40:34.955Z,90.95
2022-10-17T05:41:34.960Z,92.07
2022-10-17T05:42:35.064Z,91.36
2022-10-17T05:43:34.926Z,90.08
2022-10-17T05:44:34.930Z,90.24
2022-10-17T05:45:34.911Z,91.56
2022-10-17T05:46:35.578Z,91.26
2022-10-17T05:47:34.903Z,91.30
2022-10-17T05:48:34.892Z,91.20
2022-10-17T05:49:45.183Z,90.18
2022-10-17T05:50:35.879Z,90.63
2022-10-17T05:51:34.958Z,91.44
2022-10-17T05:52:34.868Z,91.96
2022-10-17T05:53:34.851Z,93.07
2022-10-17T05:54:34.857Z,93.43
2022-10-17T05:55:35.605Z,93.32
2022-10-17T05:56:34.859Z,94.55
2022-10-17T05:57:34.828Z,94.60
2022-10-17T05:58:52.303Z,94.81
2022-10-17T05:59:35.818Z,94.91
2022-10-17T06:00:34.868Z,95.06
2022-10-17T06:01:34.864Z,95.42
2022-10-17T06:02:34.790Z,94.40
2022-10-17T06:03:34.787Z,94.30
2022-10-17T06:04:34.801Z,94.81
2022-10-17T06:05:34.767Z,94.20
2022-10-17T06:06:34.766Z,93.69
2022-10-17T06:07:34.786Z,93.48
2022-10-17T06:08:34.757Z,92.72
2022-10-17T06:09:34.810Z,93.33
2022-10-17T06:10:34.735Z,93.95
2022-10-17T06:11:34.730Z,94.20
2022-10-17T06:12:34.729Z,95.12
2022-10-17T06:13:34.737Z,95.12
2022-10-17T06:14:34.730Z,95.98
2022-10-17T06:15:34.703Z,95.68
2022-10-17T06:16:34.717Z,96.04
2022-10-17T06:17:34.690Z,95.58
2022-10-17T06:18:34.716Z,94.82
2022-10-17T06:19:34.711Z,94.72
2022-10-17T06:20:34.668Z,95.23
2022-10-17T06:21:34.669Z,94.82
2022-10-17T06:22:34.654Z,94.42
2022-10-17T06:23:34.651Z,93.86
2022-10-17T06:24:34.659Z,93.55
2022-10-17T06:25:34.649Z,93.76
2022-10-17T06:26:34.709Z,93.66
2022-10-17T06:27:34.627Z,94.37
2022-10-17T06:28:34.788Z,94.27
2022-10-17T06:29:34.610Z,94.47
2022-10-17T06:30:34.630Z,93.66
2022-10-17T06:31:35.109Z,94.02
2022-10-17T06:32:35.046Z,93.01
2022-10-17T06:33:34.581Z,92.76
2022-10-17T06:34:34.571Z,92.30
2022-10-17T06:35:34.561Z,91.75
2022-10-17T06:36:34.557Z,91.25
2022-10-17T06:37:36.538Z,91.35
2022-10-17T06:38:34.546Z,91.05
2022-10-17T06:39:34.698Z,91.14
2022-10-17T06:40:34.528Z,91.10
2022-10-17T06:41:34.529Z,90.45
2022-10-17T06:42:34.607Z,89.74
2022-10-17T06:43:34.506Z,89.29
2022-10-17T06:44:34.516Z,88.73
2022-10-17T06:45:34.498Z,89.09
2022-10-17T06:46:34.532Z,88.99
2022-10-17T06:47:34.478Z,88.68
2022-10-17T06:48:35.144Z,88.58
2022-10-17T06:49:34.461Z,88.89
2022-10-17T06:50:34.458Z,88.58
2022-10-17T06:51:34.467Z,88.68
2022-10-17T06:52:34.450Z,88.68
2022-10-17T06:53:34.434Z,88.82
2022-10-17T06:54:34.430Z,89.13
2022-10-17T06:55:34.412Z,88.75
2022-10-17T06:56:34.422Z,87.24
2022-10-17T06:57:34.414Z,86.39
2022-10-17T06:58:34.395Z,84.28
2022-10-17T06:59:34.388Z,84.04
2022-10-17T07:00:34.559Z,82.85
2022-10-17T07:01:34.395Z,81.10
2022-10-17T07:02:34.415Z,80.05
2022-10-17T07:03:34.357Z,79.06
2022-10-17T07:04:34.354Z,78.32
2022-10-17T07:05:34.349Z,76.47
2022-10-17T07:06:34.341Z,76.67
2022-10-17T07:07:34.335Z,75.87
2022-10-17T07:08:34.389Z,76.57
2022-10-17T07:09:34.321Z,76.57
2022-10-17T07:10:34.308Z,76.34
2022-10-17T07:11:34.305Z,74.55
2022-10-17T07:12:34.514Z,73.81
2022-10-17T07:13:38.830Z,71.56
2022-10-17T07:14:34.284Z,71.03
2022-10-17T07:15:34.280Z,70.79
2022-10-17T07:16:34.268Z,70.79
2022-10-17T07:17:34.261Z,68.95
2022-10-17T07:18:34.300Z,67.42
2022-10-17T07:19:34.250Z,66.88
2022-10-17T07:20:34.242Z,67.45
2022-10-17T07:21:36.715Z,65.52
2022-10-17T07:22:34.400Z,66.59
2022-10-17T07:23:34.226Z,65.16
2022-10-17T07:24:34.211Z,64.22
2022-10-17T07:25:36.462Z,63.39
2022-10-17T07:26:35.658Z,63.13
2022-10-17T07:27:34.192Z,63.10
2022-10-17T07:28:34.243Z,60.58
2022-10-17T07:29:34.522Z,60.55
2022-10-17T07:30:34.177Z,60.92
2022-10-17T07:31:34.160Z,58.83
2022-10-17T07:32:34.156Z,58.95
2022-10-17T07:33:34.179Z,59.28
2022-10-17T07:34:34.191Z,59.98
2022-10-17T07:35:34.177Z,60.21
2022-10-17T07:36:34.141Z,60.74
2022-10-17T07:37:34.293Z,60.89
2022-10-17T07:38:34.150Z,61.19
2022-10-17T07:39:34.099Z,62.15
2022-10-17T07:40:34.103Z,62.55
2022-10-17T07:41:34.104Z,63.08
2022-10-17T07:42:34.130Z,64.69
2022-10-17T07:43:34.138Z,63.81
2022-10-17T07:44:34.070Z,64.89
2022-10-17T07:45:34.077Z,64.39
2022-10-17T07:46:34.063Z,64.25
2022-10-17T07:47:34.045Z,63.85
2022-10-17T07:48:34.054Z,64.65
2022-10-17T07:49:34.042Z,64.86
2022-10-17T07:50:34.068Z,63.75
2022-10-17T07:51:34.314Z,64.15
2022-10-17T07:52:34.021Z,64.32
2022-10-17T07:53:34.005Z,64.42
2022-10-17T07:54:34.012Z,63.82
2022-10-17T07:55:34.001Z,64.52
2022-10-17T07:56:33.987Z,64.12
2022-10-17T07:57:34.825Z,64.06
2022-10-17T07:58:33.982Z,64.45
2022-10-17T07:59:34.136Z,64.55
2022-10-17T08:00:34.049Z,65.42
2022-10-17T08:01:33.965Z,65.31
2022-10-17T08:02:34.491Z,65.72
2022-10-17T08:03:33.952Z,66.89
2022-10-17T08:04:33.934Z,66.89
2022-10-17T08:05:33.932Z,66.12
2022-10-17T08:06:33.958Z,65.62
2022-10-17T08:07:33.931Z,66.75
2022-10-17T08:08:33.944Z,67.76
2022-10-17T08:09:33.903Z,67.35
2022-10-17T08:10:33.893Z,68.29
2022-10-17T08:11:33.894Z,68.55
2022-10-17T08:12:33.893Z,68.15
2022-10-17T08:13:33.896Z,67.65
2022-10-17T08:14:33.877Z,68.46
2022-10-17T08:15:33.895Z,68.32
2022-10-17T08:16:33.863Z,67.12
2022-10-17T08:17:33.851Z,67.19
2022-10-17T08:18:33.857Z,67.25
2022-10-17T08:19:33.843Z,67.25
2022-10-17T08:20:33.853Z,66.32
2022-10-17T08:21:33.826Z,66.19
2022-10-17T08:22:33.905Z,65.19
2022-10-17T08:23:33.813Z,65.59
2022-10-17T08:24:33.804Z,64.76
2022-10-17T08:25:33.827Z,64.23
2022-10-17T08:26:33.797Z,63.73
2022-10-17T08:27:33.803Z,63.33
2022-10-17T08:28:33.813Z,64.33
2022-10-17T08:29:33.784Z,64.20
2022-10-17T08:30:33.769Z,64.27
2022-10-17T08:31:33.907Z,62.74
2022-10-17T08:32:33.764Z,62.94
2022-10-17T08:33:33.754Z,61.91
2022-10-17T08:34:33.748Z,60.79
2022-10-17T08:35:33.752Z,61.88
2022-10-17T08:36:33.722Z,61.99
2022-10-17T08:37:34.046Z,61.25
2022-10-17T08:38:35.583Z,61.72
2022-10-17T08:39:33.708Z,60.90
2022-10-17T08:40:33.739Z,60.70
2022-10-17T08:41:33.731Z,59.88
2022-10-17T08:42:33.685Z,59.08
2022-10-17T08:43:35.586Z,59.25
2022-10-17T08:44:33.669Z,58.65
2022-10-17T08:45:33.667Z,59.55
2022-10-17T08:46:33.673Z,58.62
2022-10-17T08:47:33.669Z,57.51
2022-10-17T08:48:33.649Z,58.20
2022-10-17T08:49:33.633Z,57.68
2022-10-17T08:50:33.629Z,57.45
2022-10-17T08:51:33.628Z,57.25
2022-10-17T08:52:33.635Z,56.13
2022-10-17T08:53:34.073Z,55.44
2022-10-17T08:54:33.639Z,55.81
2022-10-17T08:55:33.897Z,55.98
2022-10-17T08:56:47.931Z,54.89
2022-10-17T08:57:34.582Z,55.88
2022-10-17T08:58:33.852Z,54.69
2022-10-17T08:59:34.264Z,55.09
2022-10-17T09:00:33.562Z,53.67
2022-10-17T09:01:33.546Z,53.48
2022-10-17T09:02:33.606Z,53.97
2022-10-17T09:03:33.537Z,53.92
2022-10-17T09:04:33.562Z,53.53
2022-10-17T09:05:33.537Z,53.20
2022-10-17T09:06:33.517Z,52.91
2022-10-17T09:07:33.535Z,53.11
2022-10-17T09:08:33.511Z,53.70
2022-10-17T09:09:33.510Z,53.20
2022-10-17T09:10:33.503Z,53.82
2022-10-17T09:11:33.500Z,53.63
2022-10-17T09:12:33.468Z,54.02
2022-10-17T09:13:33.535Z,54.22
2022-10-17T09:14:33.460Z,53.13
2022-10-17T09:15:33.444Z,53.47
2022-10-17T09:16:33.453Z,53.28
2022-10-17T09:17:33.448Z,52.78
2022-10-17T09:18:33.425Z,52.48
2022-10-17T09:19:33.422Z,52.19
2022-10-17T09:20:33.427Z,52.12
2022-10-17T09:21:33.885Z,51.23
2022-10-17T09:22:33.456Z,52.44
2022-10-17T09:23:33.431Z,53.03
2022-10-17T09:24:33.385Z,53.23
2022-10-17T09:25:33.378Z,52.41
2022-10-17T09:26:33.480Z,52.51
2022-10-17T09:27:33.359Z,52.58
2022-10-17T09:28:33.468Z,51.00
2022-10-17T09:29:37.970Z,51.70
2022-10-17T09:30:44.614Z,51.40
2022-10-17T09:31:34.361Z,49.89
2022-10-17T09:32:33.380Z,50.68
2022-10-17T09:33:42.385Z,49.77
2022-10-17T09:34:34.317Z,51.07
2022-10-17T09:35:33.302Z,51.05
2022-10-17T09:36:33.465Z,51.35
2022-10-17T09:37:33.289Z,50.95
2022-10-17T09:38:33.286Z,49.96
2022-10-17T09:39:33.285Z,50.88
2022-10-17T09:40:33.279Z,51.97
2022-10-17T09:41:44.875Z,52.06
2022-10-17T09:42:34.282Z,51.07
2022-10-17T09:43:33.258Z,51.84
2022-10-17T09:44:33.251Z,51.05
2022-10-17T09:45:33.242Z,51.18
2022-10-17T09:46:33.387Z,51.70
2022-10-17T09:47:33.221Z,51.79
2022-10-17T09:48:33.222Z,51.89
2022-10-17T09:49:33.212Z,52.78
2022-10-17T09:50:33.211Z,52.93
2022-10-17T09:51:33.218Z,53.95
2022-10-17T09:52:33.206Z,53.45
2022-10-17T09:53:33.194Z,53.13
2022-10-17T09:54:33.184Z,53.48
2022-10-17T09:55:33.801Z,53.70
2022-10-17T09:56:33.165Z,54.92
2022-10-17T09:57:33.172Z,55.41
2022-10-17T09:58:33.217Z,55.15
2022-10-17T09:59:33.141Z,55.76
2022-10-17T10:00:33.233Z,55.21
2022-10-17T10:01:33.134Z,53.53
2022-10-17T10:02:33.499Z,53.63
2022-10-17T10:03:33.123Z,54.05
2022-10-17T10:04:46.790Z,54.15
2022-10-17T10:05:34.395Z,55.29
2022-10-17T10:06:33.104Z,55.47
2022-10-17T10:07:33.086Z,55.10
2022-10-17T10:08:33.092Z,55.40
2022-10-17T10:09:34.856Z,55.59
2022-10-17T10:10:33.071Z,55.79
2022-10-17T10:11:33.078Z,55.00
2022-10-17T10:12:33.257Z,55.52
2022-10-17T10:13:33.114Z,55.91
2022-10-17T10:14:33.197Z,56.19
2022-10-17T10:15:33.035Z,56.12
2022-10-17T10:16:33.049Z,56.51
2022-10-17T10:17:33.022Z,55.72
2022-10-17T10:18:33.102Z,55.55
2022-10-17T10:19:33.021Z,55.67
2022-10-17T10:20:33.002Z,57.76
2022-10-17T10:21:33.959Z,55.00
2022-10-17T10:22:33.125Z,55.38
2022-10-17T10:23:32.979Z,55.10
2022-10-17T10:24:32.977Z,55.20
2022-10-17T10:25:32.964Z,54.80
2022-10-17T10:26:32.958Z,53.81
2022-10-17T10:28:33.371Z,54.24
2022-10-17T10:29:32.959Z,55.33
2022-10-17T10:32:06.374Z,54.21
2022-10-17T10:33:06.346Z,53.69
2022-10-17T10:34:06.350Z,53.98
2022-10-17T10:35:06.333Z,53.46
2022-10-17T10:36:06.351Z,53.69
2022-10-17T10:37:06.332Z,54.65
2022-10-17T10:38:06.310Z,53.06
2022-10-17T10:39:06.309Z,53.83
2022-10-17T10:40:06.388Z,52.94
2022-10-17T10:41:06.302Z,52.39
2022-10-17T10:42:06.300Z,52.31
2022-10-17T10:43:06.298Z,52.47
2022-10-17T10:44:06.821Z,52.19
2022-10-17T10:45:07.483Z,52.49
2022-10-17T10:46:06.261Z,53.51
2022-10-17T10:47:06.261Z,52.59
2022-10-17T10:48:06.293Z,50.83
2022-10-17T10:49:06.580Z,51.52
2022-10-17T10:50:06.249Z,51.54
2022-10-17T10:51:06.289Z,52.14
2022-10-17T10:52:06.205Z,51.54
2022-10-17T10:53:06.198Z,51.62
2022-10-17T10:54:06.264Z,51.75
2022-10-17T10:55:06.254Z,51.87
2022-10-17T10:56:06.203Z,52.37
2022-10-17T10:57:06.233Z,51.37
2022-10-17T10:58:06.208Z,51.30
2022-10-17T10:59:08.187Z,52.39
2022-10-17T11:00:06.156Z,52.00
2022-10-17T11:01:06.367Z,52.89
2022-10-17T11:02:06.175Z,52.76
2022-10-17T11:03:09.389Z,51.67
2022-10-17T11:04:07.157Z,53.06
2022-10-17T11:05:06.183Z,52.24
2022-10-17T11:06:06.105Z,52.02
2022-10-17T11:07:06.114Z,51.62
2022-10-17T11:08:06.094Z,51.30
2022-10-17T11:09:06.078Z,51.40
2022-10-17T11:10:06.096Z,50.28
2022-10-17T11:11:06.120Z,50.21
2022-10-17T11:12:06.089Z,50.83
2022-10-17T11:13:06.097Z,51.03
2022-10-17T11:14:06.040Z,51.30
2022-10-17T11:15:06.035Z,51.89
2022-10-17T11:16:06.025Z,50.98
2022-10-17T11:17:06.016Z,50.09
2022-10-17T11:18:06.164Z,50.01
2022-10-17T11:19:06.093Z,50.21
2022-10-17T11:20:06.016Z,50.98
2022-10-17T11:21:05.986Z,50.36
2022-10-17T11:22:05.993Z,50.04
2022-10-17T11:23:05.989Z,49.15
2022-10-17T11:24:06.998Z,49.02
2022-10-17T11:25:05.964Z,47.93
2022-10-17T11:26:05.966Z,47.36
2022-10-17T11:27:05.964Z,48.27
2022-10-17T11:28:05.977Z,48.75
2022-10-17T11:29:06.067Z,47.63
2022-10-17T11:30:05.948Z,47.26
2022-10-17T11:31:07.908Z,47.86
2022-10-17T11:32:05.917Z,48.08
2022-10-17T11:33:05.900Z,49.15
2022-10-17T11:34:05.889Z,48.13
2022-10-17T11:35:05.895Z,47.74
2022-10-17T11:36:05.932Z,47.31
2022-10-17T11:37:06.076Z,47.41
2022-10-17T11:38:05.862Z,47.22
2022-10-17T11:39:05.874Z,47.81
2022-10-17T11:40:05.847Z,45.63
2022-10-17T11:41:05.854Z,45.43
2022-10-17T11:42:05.830Z,45.63
2022-10-17T11:43:05.835Z,47.31
2022-10-17T11:44:05.820Z,46.92
2022-10-17T11:45:05.834Z,47.93
2022-10-17T11:46:05.822Z,47.93
2022-10-17T11:47:05.958Z,47.22
2022-10-17T11:48:05.792Z,45.98
2022-10-17T11:49:05.899Z,45.37
2022-10-17T11:52:06.804Z,44.61
2022-10-17T11:53:05.762Z,44.51
2022-10-17T11:54:05.752Z,43.73
2022-10-17T11:55:06.094Z,43.62
2022-10-17T11:56:05.737Z,44.16
2022-10-17T11:57:05.830Z,43.77
2022-10-17T11:58:05.739Z,44.78
2022-10-17T11:59:05.719Z,44.28
2022-10-17T12:00:05.708Z,44.28
2022-10-17T12:01:05.744Z,44.78
2022-10-17T12:02:05.724Z,44.16
2022-10-17T12:03:05.705Z,43.66
2022-10-17T12:04:05.715Z,44.36
2022-10-17T12:05:05.695Z,44.16
2022-10-17T12:06:05.669Z,43.05
2022-10-17T12:07:05.823Z,43.77
2022-10-17T12:08:05.677Z,44.16
2022-10-17T12:09:05.651Z,44.01
2022-10-17T12:10:05.642Z,44.62
2022-10-17T12:11:05.662Z,45.37
2022-10-17T12:12:05.643Z,45.31
2022-10-17T12:13:05.708Z,45.41
2022-10-17T12:14:06.194Z,46.20
2022-10-17T12:15:05.613Z,46.97
2022-10-17T12:16:05.631Z,45.59
2022-10-17T12:17:05.626Z,45.68
2022-10-17T12:18:05.588Z,45.31
2022-10-17T12:19:05.731Z,46.12
2022-10-17T12:20:05.572Z,46.05
2022-10-17T12:21:05.568Z,46.35
2022-10-17T12:22:05.580Z,46.79
2022-10-17T12:23:05.553Z,47.71
2022-10-17T12:24:05.584Z,47.80
2022-10-17T12:25:05.542Z,49.21
2022-10-17T12:26:05.744Z,49.21
2022-10-17T12:27:05.527Z,49.32
2022-10-17T12:28:05.523Z,48.80
2022-10-17T12:29:05.609Z,49.27
2022-10-17T12:30:05.501Z,48.18
2022-10-17T12:31:05.495Z,48.94
2022-10-17T12:32:05.488Z,48.57
2022-10-17T12:33:07.152Z,46.89
2022-10-17T12:34:05.472Z,48.00
2022-10-17T12:35:05.476Z,49.21
2022-10-17T12:36:05.463Z,49.21
2022-10-17T12:37:05.450Z,49.24
2022-10-17T12:38:06.052Z,49.26
2022-10-17T12:39:05.452Z,49.96
2022-10-17T12:40:05.503Z,49.96
2022-10-17T12:41:05.683Z,49.74
2022-10-17T12:42:05.410Z,49.04
2022-10-17T12:43:05.408Z,48.32
2022-10-17T12:44:05.445Z,47.88
2022-10-17T12:45:05.516Z,47.38
2022-10-17T12:46:05.391Z,47.75
2022-10-17T12:47:05.432Z,47.04
2022-10-17T12:48:05.380Z,46.64
2022-10-17T12:49:05.378Z,45.56
2022-10-17T12:50:05.501Z,46.82
2022-10-17T12:51:34.215Z,47.44
2022-10-17T12:52:06.541Z,47.63
2022-10-17T12:53:05.347Z,46.82
2022-10-17T12:54:05.336Z,47.19
2022-10-17T12:55:13.730Z,45.41
2022-10-17T12:56:06.349Z,45.73
2022-10-17T12:57:05.330Z,46.84